Time;durP1;ratioP1;P1;durP2;ratioP2;P2;SDS_P1;SDS_P2;PMS_P1;PMS_P2;Temp;Humidity;BMP_temperature;BMP_pressure;BME280_temperature;BME280_humidity;BME280_pressure;Samples;Min_cycle;Max_cycle;Signal;HPM_P1;HPM_P2
2023/11/09 00:02:15;;;;;;;1.33;1.20;;;;;;;10.18;100.00;100130.19;4921172;29;20051;-66
2023/11/09 00:05:03;;;;;;;2.88;1.15;;;;;;;10.15;100.00;100114.38;4935968;29;20052;-65
2023/11/09 00:07:52;;;;;;;0.90;0.90;;;;;;;10.14;100.00;100124.47;4935840;29;20107;-65
2023/11/09 00:10:40;;;;;;;2.03;1.05;;;;;;;10.16;100.00;100113.31;4921062;29;20134;-65
2023/11/09 00:13:28;;;;;;;1.25;1.13;;;;;;;10.22;100.00;100110.28;4935431;28;20048;-65
2023/11/09 00:16:16;;;;;;;3.00;1.40;;;;;;;10.20;100.00;100111.66;4946417;29;20035;-65
2023/11/09 00:19:05;;;;;;;3.55;2.08;;;;;;;10.17;100.00;100106.75;4934994;29;20040;-65
2023/11/09 00:21:53;;;;;;;2.42;1.42;;;;;;;10.13;100.00;100106.53;4934287;29;20552;-65
2023/11/09 00:24:41;;;;;;;1.48;1.13;;;;;;;10.17;100.00;100107.59;4935869;29;20131;-65
2023/11/09 00:27:29;;;;;;;1.13;0.90;;;;;;;10.19;100.00;100091.75;4935700;29;20048;-65
2023/11/09 00:30:17;;;;;;;1.23;1.17;;;;;;;10.20;100.00;100085.22;4923226;28;20138;-65
2023/11/09 00:33:05;;;;;;;1.17;0.90;;;;;;;10.20;100.00;100089.88;4920501;29;20497;-65
2023/11/09 00:35:54;;;;;;;1.48;0.77;;;;;;;10.18;100.00;100086.63;4908789;29;20040;-65
2023/11/09 00:38:45;;;;;;;2.35;0.98;;;;;;;10.15;100.00;100079.00;4936835;29;20048;-66
2023/11/09 00:41:34;;;;;;;1.42;0.82;;;;;;;10.16;100.00;100072.47;4934703;28;20052;-66
2023/11/09 00:44:22;;;;;;;1.05;0.98;;;;;;;10.17;100.00;100069.47;4951483;28;20051;-65
2023/11/09 00:47:10;;;;;;;1.50;0.90;;;;;;;10.14;100.00;100070.03;4937131;29;20047;-65
2023/11/09 00:49:59;;;;;;;1.65;1.02;;;;;;;10.12;100.00;100072.22;4937774;29;20420;-63
2023/11/09 00:52:47;;;;;;;1.95;1.20;;;;;;;10.11;100.00;100065.16;4924940;29;20060;-66
2023/11/09 00:55:35;;;;;;;1.52;0.90;;;;;;;10.12;100.00;100058.59;4924849;29;20612;-65
2023/11/09 00:58:23;;;;;;;0.80;0.80;;;;;;;10.14;100.00;100058.31;4937026;29;20412;-65
2023/11/09 01:01:11;;;;;;;1.45;0.90;;;;;;;10.17;100.00;100047.69;4937509;29;20079;-65
2023/11/09 01:03:59;;;;;;;3.65;1.08;;;;;;;10.15;100.00;100044.44;4925217;28;20514;-64
2023/11/09 01:06:48;;;;;;;1.17;1.08;;;;;;;10.16;100.00;100039.81;4924214;28;20134;-64
2023/11/09 01:09:38;;;;;;;1.60;0.93;;;;;;;10.15;100.00;100039.00;4919049;28;20547;-65
2023/11/09 01:12:27;;;;;;;2.53;0.85;;;;;;;10.17;100.00;100042.25;4919174;29;20526;-65
2023/11/09 01:15:15;;;;;;;1.27;1.17;;;;;;;10.16;100.00;100027.00;4910047;29;20513;-65
2023/11/09 01:18:05;;;;;;;3.13;1.10;;;;;;;10.15;100.00;100028.13;4937520;29;20082;-65
2023/11/09 01:20:53;;;;;;;1.38;0.80;;;;;;;10.13;100.00;100019.41;4924329;29;20044;-66
2023/11/09 01:23:41;;;;;;;1.05;0.98;;;;;;;10.13;100.00;100030.31;4924761;29;20075;-65
2023/11/09 01:26:29;;;;;;;1.23;0.93;;;;;;;10.12;100.00;100023.22;4922992;29;20131;-65
2023/11/09 01:29:18;;;;;;;1.27;0.90;;;;;;;10.13;100.00;100019.41;4936610;29;20051;-65
2023/11/09 01:32:06;;;;;;;1.75;1.30;;;;;;;10.14;100.00;100014.78;4912696;29;20051;-65
2023/11/09 01:34:54;;;;;;;1.23;0.98;;;;;;;10.14;100.00;100010.13;4923420;29;20051;-65
2023/11/09 01:37:42;;;;;;;1.00;0.88;;;;;;;10.13;100.00;100013.97;4923137;29;20047;-66
2023/11/09 01:40:33;;;;;;;1.38;1.15;;;;;;;10.10;100.00;100006.38;4917439;29;20195;-64
2023/11/09 01:43:22;;;;;;;1.50;1.10;;;;;;;10.09;100.00;100002.03;4923574;29;20052;-67
2023/11/09 01:46:11;;;;;;;1.05;1.05;;;;;;;10.11;100.00;99999.03;4922698;29;20138;-65
2023/11/09 01:48:59;;;;;;;1.30;0.82;;;;;;;10.13;100.00;99986.75;4936688;29;20044;-65
2023/11/09 01:51:49;;;;;;;1.40;1.30;;;;;;;10.13;100.00;99997.63;4929909;29;20131;-65
2023/11/09 01:54:37;;;;;;;0.98;0.90;;;;;;;10.16;100.00;99988.88;4932717;29;20126;-66
2023/11/09 01:57:26;;;;;;;1.20;0.95;;;;;;;10.15;100.00;99979.13;4897701;29;20155;-65
2023/11/09 02:00:14;;;;;;;1.55;1.00;;;;;;;10.15;100.00;99983.72;4924620;28;20059;-66
2023/11/09 02:03:02;;;;;;;1.80;1.17;;;;;;;10.14;100.00;99972.03;4924012;28;20047;-64
2023/11/09 02:05:50;;;;;;;2.38;0.90;;;;;;;10.13;100.00;99975.88;4923211;29;20417;-66
2023/11/09 02:08:39;;;;;;;0.82;0.77;;;;;;;10.14;100.00;99972.03;4938477;29;20051;-66
2023/11/09 02:11:27;;;;;;;0.75;0.75;;;;;;;10.15;100.00;99965.50;4947850;29;20103;-66
2023/11/09 02:14:16;;;;;;;0.82;0.82;;;;;;;10.16;100.00;99961.66;4958017;28;20059;-66
2023/11/09 02:17:05;;;;;;;3.40;0.80;;;;;;;10.16;100.00;99963.59;4960351;28;20182;-64
2023/11/09 02:19:53;;;;;;;1.23;1.00;;;;;;;10.14;100.00;99955.69;4950211;29;20119;-62
2023/11/09 02:22:41;;;;;;;1.30;0.93;;;;;;;10.14;100.00;99950.25;4934228;29;20129;-65
2023/11/09 02:25:29;;;;;;;1.42;1.08;;;;;;;10.16;100.00;99950.78;4923712;29;20095;-64
2023/11/09 02:28:19;;;;;;;2.88;1.10;;;;;;;10.16;100.00;99947.25;4939847;29;20111;-62
2023/11/09 02:31:08;;;;;;;2.08;1.20;;;;;;;10.16;100.00;99958.94;4929469;29;20043;-64
2023/11/09 02:33:56;;;;;;;1.02;0.85;;;;;;;10.16;100.00;99947.25;4908581;29;20047;-65
2023/11/09 02:36:45;;;;;;;1.73;1.10;;;;;;;10.13;100.00;99948.63;4909984;29;20500;-62
2023/11/09 02:39:33;;;;;;;1.05;0.80;;;;;;;10.16;100.00;99950.78;4936132;29;20044;-64
2023/11/09 02:42:22;;;;;;;1.23;1.08;;;;;;;10.17;100.00;99943.41;4934548;29;20051;-64
2023/11/09 02:45:10;;;;;;;0.80;0.80;;;;;;;10.15;100.00;99943.72;4936250;29;20178;-65
2023/11/09 02:47:58;;;;;;;1.15;0.90;;;;;;;10.16;100.00;99936.38;4918550;29;20048;-65
2023/11/09 02:50:46;;;;;;;2.30;0.90;;;;;;;10.17;100.00;99932.53;4932375;29;20131;-67
2023/11/09 02:53:34;;;;;;;0.80;0.80;;;;;;;10.15;100.00;99930.13;4935327;29;20066;-66
2023/11/09 02:56:22;;;;;;;1.02;0.88;;;;;;;10.15;100.00;99932.84;4922144;29;20386;-66
2023/11/09 02:59:10;;;;;;;0.80;0.80;;;;;;;10.14;100.00;99928.47;4933522;29;20612;-66
2023/11/09 03:01:58;;;;;;;1.48;0.95;;;;;;;10.20;100.00;99932.78;4920089;29;20047;-65
2023/11/09 03:04:47;;;;;;;2.55;1.20;;;;;;;10.21;100.00;99931.66;4902725;29;20417;-65
2023/11/09 03:07:35;;;;;;;1.05;0.95;;;;;;;10.18;100.00;99924.09;4902746;29;20059;-66
2023/11/09 03:10:23;;;;;;;1.42;1.10;;;;;;;10.18;100.00;99918.66;4930175;29;20102;-65
2023/11/09 03:13:14;;;;;;;1.00;1.00;;;;;;;10.20;100.00;99915.66;4916656;29;20056;-65
2023/11/09 03:16:02;;;;;;;1.60;1.30;;;;;;;10.18;100.00;99913.19;4917427;29;20565;-66
2023/11/09 03:18:50;;;;;;;0.80;0.80;;;;;;;10.18;100.00;99912.41;4917851;29;20135;-65
2023/11/09 03:21:38;;;;;;;1.20;1.00;;;;;;;10.18;100.00;99915.91;4917119;29;20048;-65
2023/11/09 03:24:29;;;;;;;3.83;1.38;;;;;;;10.19;100.00;99914.81;4934537;29;20052;-65
2023/11/09 03:27:17;;;;;;;1.67;1.08;;;;;;;10.21;100.00;99912.63;4921725;29;20054;-65
2023/11/09 03:30:22;;;;;;;1.83;1.05;;;;;;;10.22;100.00;99900.66;4935679;28;20091;-66
2023/11/09 03:33:10;;;;;;;2.80;1.27;;;;;;;10.23;100.00;99904.97;4935144;29;20052;-66
2023/11/09 03:35:58;;;;;;;1.40;1.30;;;;;;;10.22;100.00;99902.53;4920051;29;20051;-65
2023/11/09 03:38:48;;;;;;;2.83;1.13;;;;;;;10.22;100.00;99903.38;4935455;29;20036;-66
2023/11/09 03:41:36;;;;;;;2.97;1.17;;;;;;;10.23;100.00;99893.28;4936018;29;20043;-65
2023/11/09 03:44:26;;;;;;;2.35;1.55;;;;;;;10.23;100.00;99898.72;4934517;29;20208;-65
2023/11/09 03:47:15;;;;;;;1.50;1.30;;;;;;;10.22;100.00;99892.47;4933456;29;20052;-65
2023/11/09 03:50:04;;;;;;;2.40;1.33;;;;;;;10.24;100.00;99887.53;4934425;29;20087;-65
2023/11/09 03:52:52;;;;;;;2.88;1.77;;;;;;;10.24;100.00;99890.25;4920795;28;20055;-66
2023/11/09 03:55:41;;;;;;;2.58;1.23;;;;;;;10.23;100.00;99896.81;4929812;29;20052;-66
2023/11/09 03:58:28;;;;;;;1.55;1.35;;;;;;;10.22;100.00;99906.09;4922876;29;20052;-66
2023/11/09 04:01:16;;;;;;;4.80;1.33;;;;;;;10.23;100.00;99896.81;4935265;29;20052;-67
2023/11/09 04:04:06;;;;;;;3.00;1.40;;;;;;;10.29;100.00;99896.78;4921218;29;20540;-66
2023/11/09 04:06:55;;;;;;;3.95;1.45;;;;;;;10.27;100.00;99893.50;4935106;29;20044;-66
2023/11/09 04:09:43;;;;;;;1.52;1.33;;;;;;;10.28;100.00;99895.16;4909213;29;20051;-66
2023/11/09 04:12:31;;;;;;;1.85;1.40;;;;;;;10.27;100.00;99894.34;4934098;29;20398;-66
2023/11/09 04:15:19;;;;;;;3.60;1.50;;;;;;;10.28;100.00;99889.69;4932681;29;20398;-66
2023/11/09 04:18:07;;;;;;;3.58;1.55;;;;;;;10.30;100.00;99895.69;4950654;28;20040;-66
2023/11/09 04:20:55;;;;;;;1.33;1.23;;;;;;;10.33;100.00;99889.66;4936533;29;20155;-67
2023/11/09 04:23:43;;;;;;;1.77;1.50;;;;;;;10.31;100.00;99894.59;4938751;29;20051;-65
2023/11/09 04:26:32;;;;;;;2.90;1.60;;;;;;;10.36;100.00;99902.69;4936203;29;20051;-66
2023/11/09 04:29:20;;;;;;;2.78;1.55;;;;;;;10.35;100.00;99906.53;4935074;29;20571;-65
2023/11/09 04:32:09;;;;;;;1.50;1.35;;;;;;;10.35;100.00;99901.09;4949210;29;20055;-65
2023/11/09 04:34:57;;;;;;;4.53;1.65;;;;;;;10.32;100.00;99893.47;4950048;29;20145;-65
2023/11/09 04:37:49;;;;;;;2.92;1.67;;;;;;;10.32;100.00;99890.75;4939088;29;20047;-65
2023/11/09 04:40:37;;;;;;;2.65;1.85;;;;;;;10.32;100.00;99899.75;4922600;29;20067;-65
2023/11/09 04:43:25;;;;;;;2.58;1.52;;;;;;;10.33;100.00;99906.00;4936901;29;20095;-65
2023/11/09 04:46:17;;;;;;;2.65;1.40;;;;;;;10.33;100.00;99898.63;4925432;29;20130;-66
2023/11/09 04:49:07;;;;;;;2.60;1.80;;;;;;;10.32;100.00;99902.47;4924037;29;20063;-67
2023/11/09 04:52:02;;;;;;;2.22;1.67;;;;;;;10.34;100.00;99899.44;4910427;29;20052;-66
2023/11/09 04:54:59;;;;;;;3.20;2.10;;;;;;;10.34;100.00;99910.34;4923018;29;20054;-65
2023/11/09 05:07:22;;;;;;;4.30;2.35;;;;;;;10.31;100.00;99911.72;4926980;28;20183;-66
2023/11/09 05:10:10;;;;;;;3.10;1.75;;;;;;;10.33;100.00;99908.72;4924591;28;20051;-66
2023/11/09 05:12:58;;;;;;;3.72;2.30;;;;;;;10.32;100.00;99912.53;4935717;29;20048;-66
2023/11/09 05:15:46;;;;;;;4.07;1.92;;;;;;;10.32;100.00;99928.88;4921330;29;20051;-66
2023/11/09 05:18:34;;;;;;;2.20;1.90;;;;;;;10.30;100.00;99925.66;4936268;29;20051;-65
2023/11/09 05:21:23;;;;;;;4.05;1.95;;;;;;;10.31;100.00;99927.25;4936138;29;20039;-64
2023/11/09 05:24:11;;;;;;;2.92;1.73;;;;;;;10.31;100.00;99930.78;4937160;29;20519;-66
2023/11/09 05:26:59;;;;;;;3.55;2.22;;;;;;;10.31;100.00;99933.50;4908706;29;20131;-64
2023/11/09 05:29:47;;;;;;;3.10;2.00;;;;;;;10.31;100.00;99938.16;4945202;29;20083;-65
2023/11/09 05:32:35;;;;;;;2.10;1.90;;;;;;;10.30;100.00;99936.53;4936483;29;20056;-65
2023/11/09 05:35:27;;;;;;;2.03;1.80;;;;;;;10.30;100.00;99931.09;4923778;29;20047;-65
2023/11/09 05:38:15;;;;;;;2.33;1.90;;;;;;;10.31;100.00;99935.44;4913218;29;20408;-66
2023/11/09 05:41:06;;;;;;;4.28;2.30;;;;;;;10.28;100.00;99944.16;4910324;29;20047;-64
2023/11/09 05:43:54;;;;;;;3.00;2.13;;;;;;;10.29;100.00;99937.63;4911163;29;20452;-64
2023/11/09 05:46:42;;;;;;;2.17;1.98;;;;;;;10.27;100.00;99942.50;4934980;29;20067;-64
2023/11/09 05:49:30;;;;;;;3.72;2.08;;;;;;;10.27;100.00;99942.50;4923458;29;20134;-63
2023/11/09 05:52:19;;;;;;;3.63;2.47;;;;;;;10.25;100.00;99931.94;4937320;29;20146;-65
2023/11/09 05:55:08;;;;;;;2.97;2.10;;;;;;;10.24;100.00;99938.44;4909251;29;20046;-63
2023/11/09 05:57:58;;;;;;;3.25;2.35;;;;;;;10.23;100.00;99936.84;4936231;29;20068;-64
2023/11/09 06:00:47;;;;;;;2.58;2.00;;;;;;;10.22;100.00;99946.94;4936125;29;20059;-65
2023/11/09 06:03:35;;;;;;;2.65;2.22;;;;;;;10.23;100.00;99953.19;4923110;29;20055;-66
2023/11/09 06:06:23;;;;;;;3.38;2.40;;;;;;;10.22;100.00;99956.97;4922712;29;20054;-64
2023/11/09 06:09:11;;;;;;;4.15;2.20;;;;;;;10.22;100.00;99963.25;4934646;29;20094;-64
2023/11/09 06:11:59;;;;;;;2.38;2.20;;;;;;;10.21;100.00;99964.34;4252419;28;10000845;-64
2023/11/09 06:14:47;;;;;;;2.97;2.10;;;;;;;10.19;100.00;99973.91;4934057;28;20393;-65
2023/11/09 06:17:37;;;;;;;4.95;2.70;;;;;;;10.17;100.00;99970.63;4922437;28;20054;-64
2023/11/09 06:20:26;;;;;;;4.10;2.40;;;;;;;10.17;100.00;99981.53;4924402;29;20055;-65
2023/11/09 06:23:14;;;;;;;3.53;2.50;;;;;;;10.15;100.00;99990.00;4913493;29;20044;-65
2023/11/09 06:26:02;;;;;;;8.75;2.75;;;;;;;10.13;100.00;99984.03;4918126;29;20056;-65
2023/11/09 06:28:52;;;;;;;4.70;2.90;;;;;;;10.14;100.00;99987.56;4943081;29;20055;-65
2023/11/09 06:31:41;;;;;;;4.25;2.47;;;;;;;10.15;100.00;100000.06;4948552;29;20047;-65
2023/11/09 06:34:29;;;;;;;5.70;3.38;;;;;;;10.13;100.00;99991.38;4936867;29;20122;-64
2023/11/09 06:37:17;;;;;;;6.53;3.53;;;;;;;10.09;100.00;99999.28;4939046;29;20063;-63
2023/11/09 06:40:10;;;;;;;5.07;3.63;;;;;;;10.04;100.00;99993.91;4944119;28;20165;-62
2023/11/09 06:42:59;;;;;;;7.97;4.43;;;;;;;10.04;100.00;99999.34;4938523;29;20051;-65
2023/11/09 06:45:48;;;;;;;8.27;4.97;;;;;;;10.03;100.00;99997.72;4940037;29;20066;-63
2023/11/09 06:48:36;;;;;;;8.55;4.70;;;;;;;10.05;100.00;100000.16;4922050;29;20450;-64
2023/11/09 06:51:24;;;;;;;10.18;5.57;;;;;;;10.08;100.00;99996.84;4937130;29;20106;-64
2023/11/09 06:54:12;;;;;;;6.55;4.55;;;;;;;10.10;100.00;100017.28;4925274;29;20084;-64
2023/11/09 06:57:00;;;;;;;8.57;5.55;;;;;;;10.11;100.00;100020.78;4941177;28;20142;-66
2023/11/09 06:59:48;;;;;;;8.85;5.57;;;;;;;10.13;100.00;100024.84;4905944;29;20052;-65
2023/11/09 07:02:37;;;;;;;10.70;6.85;;;;;;;10.15;100.00;100022.66;4941054;29;20178;-65
2023/11/09 07:05:25;;;;;;;9.07;5.90;;;;;;;10.16;100.00;100027.00;4941401;29;20085;-65
2023/11/09 07:08:13;;;;;;;13.07;7.88;;;;;;;10.15;100.00;100022.66;4943166;29;20060;-65
2023/11/09 07:11:01;;;;;;;12.45;8.35;;;;;;;10.13;100.00;100033.03;4926585;29;20127;-65
2023/11/09 07:13:49;;;;;;;14.55;8.40;;;;;;;10.13;100.00;100027.56;4939892;29;20107;-65
2023/11/09 07:16:37;;;;;;;14.15;9.02;;;;;;;10.14;100.00;100037.34;4937725;29;20062;-65
2023/11/09 07:19:25;;;;;;;13.10;8.52;;;;;;;10.16;100.00;100028.91;4930491;29;20143;-67
2023/11/09 07:22:14;;;;;;;14.93;9.00;;;;;;;10.14;100.00;100042.81;4951540;29;20056;-63
2023/11/09 07:25:02;;;;;;;13.52;8.82;;;;;;;10.14;100.00;100042.00;4935309;29;20068;-65
2023/11/09 07:28:00;;;;;;;16.23;9.57;;;;;;;10.14;100.00;100042.81;4902287;29;20142;-64
2023/11/09 07:30:51;;;;;;;12.55;7.03;;;;;;;10.19;100.00;100044.66;4931900;28;20504;-67
2023/11/09 07:33:39;;;;;;;15.77;10.18;;;;;;;10.22;100.00;100047.66;4933169;29;20130;-69
2023/11/09 07:36:27;;;;;;;12.57;8.98;;;;;;;10.19;100.00;100050.94;4945330;29;20086;-66
2023/11/09 07:39:15;;;;;;;13.32;8.13;;;;;;;10.18;100.00;100059.41;4936705;29;20202;-67
2023/11/09 07:42:06;;;;;;;19.90;10.93;;;;;;;10.17;100.00;100053.16;4935021;29;20079;-66
2023/11/09 07:44:54;;;;;;;15.93;10.25;;;;;;;10.15;100.00;100049.88;4924170;29;20504;-66
2023/11/09 07:47:43;;;;;;;17.40;9.98;;;;;;;10.13;100.00;100054.00;4934935;29;20062;-66
2023/11/09 07:50:33;;;;;;;14.75;9.80;;;;;;;10.13;100.00;100052.06;4935876;29;20527;-66
2023/11/09 07:53:21;;;;;;;21.05;11.35;;;;;;;10.12;100.00;100055.88;4913254;29;20052;-66
2023/11/09 07:56:11;;;;;;;18.90;12.48;;;;;;;10.11;100.00;100054.28;4927190;29;20552;-65
2023/11/09 07:58:59;;;;;;;19.80;11.70;;;;;;;10.10;100.00;100058.09;4925390;29;20040;-66
2023/11/09 08:01:47;;;;;;;21.35;13.27;;;;;;;10.10;100.00;100046.38;4926937;29;20508;-66
2023/11/09 08:04:36;;;;;;;17.77;10.90;;;;;;;10.10;100.00;100049.94;4924509;29;20071;-66
2023/11/09 08:07:25;;;;;;;19.00;10.60;;;;;;;10.09;100.00;100040.13;4910506;29;20437;-67
2023/11/09 08:10:14;;;;;;;21.65;11.75;;;;;;;10.09;100.00;100045.56;4928707;29;20044;-66
2023/11/09 08:13:02;;;;;;;18.63;11.35;;;;;;;10.11;100.00;100042.56;4937901;29;20142;-66
2023/11/09 08:15:50;;;;;;;18.75;11.05;;;;;;;10.14;100.00;100050.16;4938007;29;20051;-65
2023/11/09 08:18:40;;;;;;;17.70;10.95;;;;;;;10.10;100.00;100044.50;4935466;29;20069;-66
2023/11/09 08:21:28;;;;;;;21.77;11.60;;;;;;;10.07;100.00;100052.41;4924687;29;20109;-66
2023/11/09 08:24:17;;;;;;;19.60;11.90;;;;;;;10.06;100.00;100057.03;4923214;29;20409;-67
2023/11/09 08:27:05;;;;;;;20.58;10.60;;;;;;;10.07;100.00;100063.28;4936436;29;20138;-67
2023/11/09 08:29:53;;;;;;;20.30;11.57;;;;;;;10.03;100.00;100057.59;4936433;29;20130;-68
2023/11/09 08:32:45;;;;;;;21.38;10.32;;;;;;;10.07;100.00;100063.28;4923312;29;20416;-68
2023/11/09 08:35:33;;;;;;;20.08;11.02;;;;;;;10.04;100.00;100064.66;4938634;29;20507;-66
2023/11/09 08:38:22;;;;;;;19.67;10.73;;;;;;;10.00;100.00;100071.75;4925000;29;20445;-67
2023/11/09 08:41:10;;;;;;;17.83;11.00;;;;;;;10.00;100.00;100075.28;4937103;29;20416;-66
2023/11/09 08:43:58;;;;;;;21.10;11.05;;;;;;;10.03;100.00;100074.75;4922864;29;20055;-66
2023/11/09 08:46:46;;;;;;;19.65;11.77;;;;;;;10.01;100.00;100076.13;4924713;29;20111;-67
2023/11/09 08:49:37;;;;;;;20.58;10.80;;;;;;;10.01;100.00;100076.13;4938615;29;20488;-67
2023/11/09 08:52:27;;;;;;;20.90;9.93;;;;;;;10.00;100.00;100093.53;4906876;29;20064;-66
2023/11/09 08:55:16;;;;;;;17.65;10.65;;;;;;;10.01;100.00;100092.44;4927131;29;20096;-66
2023/11/09 08:58:04;;;;;;;17.90;9.98;;;;;;;10.02;100.00;100089.44;4905427;29;20103;-66
2023/11/09 09:00:53;;;;;;;24.65;13.25;;;;;;;10.03;100.00;100087.53;4918495;29;20517;-67
2023/11/09 09:03:41;;;;;;;28.95;12.48;;;;;;;10.08;100.00;100086.66;4888038;29;20047;-66
2023/11/09 09:06:31;;;;;;;25.77;13.70;;;;;;;10.09;100.00;100083.69;4874286;29;20056;-68
2023/11/09 09:09:19;;;;;;;24.30;12.75;;;;;;;9.98;100.00;100088.38;4886902;29;20057;-69
2023/11/09 09:12:07;;;;;;;22.92;12.63;;;;;;;9.94;100.00;100081.06;4927407;29;20199;-67
2023/11/09 09:14:57;;;;;;;21.15;12.00;;;;;;;9.91;100.00;100076.16;4896933;29;20064;-67
2023/11/09 09:17:47;;;;;;;24.10;10.77;;;;;;;9.90;100.00;100075.34;4887643;29;20047;-66
2023/11/09 09:20:37;;;;;;;23.40;11.05;;;;;;;9.89;100.00;100073.75;4919415;29;20413;-67
2023/11/09 09:23:26;;;;;;;20.92;7.88;;;;;;;9.90;100.00;100080.81;4933901;29;20520;-67
2023/11/09 09:26:14;;;;;;;19.45;8.38;;;;;;;9.91;100.00;100068.84;4893081;29;20049;-67
2023/11/09 09:29:06;;;;;;;18.42;7.65;;;;;;;9.94;100.00;100059.28;4901637;29;20052;-67
2023/11/09 09:31:56;;;;;;;16.77;7.55;;;;;;;9.99;100.00;100067.41;4924432;29;20047;-68
2023/11/09 09:34:45;;;;;;;20.05;8.32;;;;;;;10.02;100.00;100064.13;4900430;29;20044;-72
2023/11/09 09:37:37;;;;;;;18.42;7.75;;;;;;;10.03;100.00;100063.06;4908545;29;20044;-69
2023/11/09 09:40:29;;;;;;;22.90;8.13;;;;;;;10.00;100.00;100069.03;4934171;29;20058;-66
2023/11/09 09:43:33;;;;;;;20.60;8.82;;;;;;;9.98;100.00;100072.06;4917354;29;20052;-68
2023/11/09 09:46:24;;;;;;;18.10;6.22;;;;;;;10.05;100.00;100060.84;4874867;29;20422;-68
2023/11/09 09:49:14;;;;;;;19.92;6.88;;;;;;;10.11;100.00;100065.16;4893801;29;20044;-67
2023/11/09 09:52:03;;;;;;;17.65;6.00;;;;;;;10.15;100.00;100068.94;4883994;29;20472;-67
2023/11/09 09:54:51;;;;;;;18.13;6.95;;;;;;;10.15;100.00;100063.50;4931870;29;20055;-68
2023/11/09 09:57:39;;;;;;;17.40;6.55;;;;;;;10.20;100.00;100065.38;4942977;29;20424;-67
2023/11/09 10:00:27;;;;;;;22.15;7.10;;;;;;;10.23;100.00;100062.88;4933081;29;20098;-68
2023/11/09 10:03:16;;;;;;;16.23;5.57;;;;;;;10.20;100.00;100066.19;4936758;29;20044;-67
2023/11/09 10:06:13;;;;;;;19.42;5.32;;;;;;;10.26;100.00;100066.13;4936119;29;20104;-67
2023/11/09 10:09:05;;;;;;;13.27;5.55;;;;;;;10.33;100.00;100074.81;4936223;29;20044;-68
2023/11/09 10:11:54;;;;;;;15.23;5.65;;;;;;;10.36;100.00;100079.69;4935674;29;20048;-68
2023/11/09 10:14:42;;;;;;;18.50;6.60;;;;;;;10.40;100.00;100084.28;4930039;29;20056;-67
2023/11/09 10:17:32;;;;;;;16.15;5.78;;;;;;;10.39;100.00;100087.28;4917288;29;20051;-67
2023/11/09 10:20:24;;;;;;;18.17;6.00;;;;;;;10.36;100.00;100087.84;4931055;29;20040;-69
2023/11/09 10:23:14;;;;;;;15.52;4.72;;;;;;;10.35;100.00;100094.41;4924058;29;20084;-66
2023/11/09 10:26:02;;;;;;;17.08;5.75;;;;;;;10.36;100.00;100093.31;4955384;29;20507;-67
2023/11/09 10:28:55;;;;;;;20.17;5.80;;;;;;;10.38;100.00;100080.22;4937017;29;20169;-68
2023/11/09 10:31:47;;;;;;;17.20;6.03;;;;;;;10.37;100.00;100084.88;4911570;29;20049;-68
2023/11/09 10:34:36;;;;;;;19.02;6.25;;;;;;;10.33;100.00;100085.72;4921960;29;20043;-68
2023/11/09 10:37:26;;;;;;;22.50;6.43;;;;;;;10.35;100.00;100087.06;4942043;29;20047;-67
2023/11/09 10:40:15;;;;;;;19.88;6.32;;;;;;;10.39;100.00;100087.28;4930297;29;20051;-69
2023/11/09 10:43:05;;;;;;;19.00;5.78;;;;;;;10.38;100.00;100085.66;4922789;29;20088;-68
2023/11/09 10:45:57;;;;;;;19.35;6.15;;;;;;;10.39;100.00;100081.84;4948636;29;20058;-68
2023/11/09 10:48:48;;;;;;;21.10;5.65;;;;;;;10.39;100.00;100076.38;4948009;29;20140;-69
2023/11/09 10:51:39;;;;;;;19.10;6.20;;;;;;;10.38;100.00;100077.50;4932005;29;20048;-67
2023/11/09 10:54:31;;;;;;;20.15;5.97;;;;;;;10.36;100.00;100074.25;4937306;29;20477;-67
2023/11/09 10:57:21;;;;;;;23.50;5.95;;;;;;;10.36;100.00;100076.97;4938921;29;20146;-67
2023/11/09 11:00:11;;;;;;;27.23;5.95;;;;;;;10.37;100.00;100075.88;4939826;29;20475;-65
2023/11/09 11:03:11;;;;;;;20.55;5.22;;;;;;;10.35;100.00;100072.63;4914090;29;20059;-66
2023/11/09 11:06:16;;;;;;;18.83;5.43;;;;;;;10.34;100.00;100068.25;4940797;29;20048;-65
2023/11/09 11:09:07;;;;;;;;;;;;;;;10.32;100.00;100065.00;4944876;29;20056;-66
2023/11/09 11:12:01;;;;;;;15.43;5.05;;;;;;;10.32;100.00;100062.28;4946019;28;20014;-64
2023/11/09 11:14:51;;;;;;;16.45;4.82;;;;;;;10.37;100.00;100056.81;4917464;29;20052;-68
2023/11/09 11:17:42;;;;;;;16.70;5.53;;;;;;;10.39;100.00;100057.31;4921532;29;20127;-66
2023/11/09 11:21:05;;;;;;;15.73;4.07;;;;;;;10.51;100.00;100057.78;4921926;29;20048;-67
2023/11/09 11:23:54;;;;;;;12.43;4.10;;;;;;;10.61;100.00;100046.78;4934888;29;20048;-67
2023/11/09 11:27:02;;;;;;;16.67;4.43;;;;;;;10.64;100.00;100050.84;4921988;29;20075;-66
2023/11/09 11:30:25;;;;;;;11.60;3.97;;;;;;;10.64;100.00;100043.50;4935519;29;20182;-66
2023/11/09 11:33:15;;;;;;;15.40;4.20;;;;;;;10.64;100.00;100046.22;4935449;29;20060;-67
2023/11/09 11:36:05;;;;;;;16.67;5.25;;;;;;;10.66;100.00;100035.84;4252928;29;10001093;-66
2023/11/09 11:39:20;;;;;;;16.17;4.70;;;;;;;10.67;100.00;100028.47;4918594;29;20051;-66
2023/11/09 11:42:19;;;;;;;23.70;6.40;;;;;;;10.72;100.00;100025.69;4942865;29;20055;-67
2023/11/09 11:45:07;;;;;;;21.42;8.25;;;;;;;10.84;100.00;100009.75;4906516;29;20048;-67
2023/11/09 11:47:59;;;;;;;23.40;9.75;;;;;;;10.97;100.00;100016.44;4905626;29;20059;-67
2023/11/09 11:50:49;;;;;;;19.02;7.47;;;;;;;10.94;100.00;100017.00;4932607;29;20106;-68
2023/11/09 11:53:40;;;;;;;26.67;10.07;;;;;;;11.00;100.00;100006.88;4932786;29;20059;-67
2023/11/09 11:56:33;;;;;;;20.58;7.65;;;;;;;11.07;100.00;100005.41;4932808;29;20054;-66
2023/11/09 11:59:22;;;;;;;28.65;11.48;;;;;;;11.09;100.00;100000.47;4933065;29;20503;-67
2023/11/09 12:02:12;;;;;;;17.98;6.57;;;;;;;11.04;100.00;100003.28;4932560;29;20416;-66
2023/11/09 12:05:02;;;;;;;28.40;10.65;;;;;;;11.16;100.00;99986.50;4933399;29;20048;-66
2023/11/09 12:07:51;;;;;;;26.95;10.32;;;;;;;11.20;100.00;99992.16;4909628;29;20048;-67
2023/11/09 12:10:42;;;;;;;27.20;10.13;;;;;;;11.17;100.00;99984.56;4934665;29;20059;-68
2023/11/09 12:13:34;;;;;;;19.95;6.85;;;;;;;11.14;100.00;99994.16;4923394;29;20048;-67
2023/11/09 12:16:24;;;;;;;20.15;5.50;;;;;;;11.25;100.00;99992.09;4930433;29;20039;-67
2023/11/09 12:19:14;;;;;;;15.88;4.70;;;;;;;11.22;100.00;99979.88;4945644;29;20087;-67
2023/11/09 12:22:07;;;;;;;15.52;4.53;;;;;;;11.21;100.00;99980.16;4938517;29;20194;-67
2023/11/09 12:25:00;;;;;;;15.88;4.78;;;;;;;11.20;100.00;99983.97;4930246;29;20047;-67
2023/11/09 12:27:48;;;;;;;16.33;5.38;;;;;;;11.25;100.00;99978.47;4918548;29;20074;-67
2023/11/09 12:30:36;;;;;;;12.82;4.28;;;;;;;11.17;100.00;99987.31;4922958;29;20054;-67
2023/11/09 12:33:24;;;;;;;16.45;5.38;;;;;;;11.13;100.00;99980.81;4935806;29;20047;-67
2023/11/09 12:36:12;;;;;;;16.60;5.07;;;;;;;11.11;100.00;99972.09;4935848;29;20055;-67
2023/11/09 12:39:01;;;;;;;21.60;6.13;;;;;;;11.13;100.00;99969.91;4931875;29;20047;-68
2023/11/09 12:41:51;;;;;;;17.08;6.13;;;;;;;11.09;100.00;99967.75;4926976;28;20632;-68
2023/11/09 12:44:48;;;;;;;23.23;7.72;;;;;;;11.16;100.00;99958.41;4924978;29;20054;-68
2023/11/09 12:47:38;;;;;;;18.75;6.78;;;;;;;11.23;100.00;99951.50;4939658;29;20047;-67
2023/11/09 12:50:30;;;;;;;25.00;8.27;;;;;;;11.30;100.00;99948.38;4924834;29;20044;-66
2023/11/09 12:53:18;;;;;;;21.85;6.85;;;;;;;11.32;100.00;99950.84;4938721;29;20067;-67
2023/11/09 12:56:07;;;;;;;15.20;5.35;;;;;;;11.20;100.00;99943.09;4911668;29;20509;-66
2023/11/09 12:58:56;;;;;;;25.75;8.07;;;;;;;11.16;100.00;99929.25;4897287;29;20059;-67
2023/11/09 13:01:45;;;;;;;22.40;7.80;;;;;;;11.21;100.00;99933.81;4938057;29;20051;-66
2023/11/09 13:04:41;;;;;;;19.95;7.60;;;;;;;11.22;100.00;99928.06;4938009;29;20111;-66
2023/11/09 13:07:30;;;;;;;20.33;8.38;;;;;;;11.31;100.00;99917.31;4938015;29;20052;-66
2023/11/09 13:10:23;;;;;;;24.83;8.02;;;;;;;11.27;100.00;99921.72;4936567;29;20051;-67